sensor_id;sensor_type;location;lat;lon;timestamp;P1;durP1;ratioP1;P2;durP2;ratioP2
70301;SDS011;57706;56.326;43.882;2022-08-20T00:00:14;6.53;;;4.30;;
70301;SDS011;57706;56.326;43.882;2022-08-20T00:02:46;15.15;;;4.30;;
70301;SDS011;57706;56.326;43.882;2022-08-20T00:05:16;11.82;;;4.25;;
70301;SDS011;57706;56.326;43.882;2022-08-20T00:07:48;10.07;;;4.40;;
70301;SDS011;57706;56.326;43.882;2022-08-20T00:10:14;9.52;;;4.57;;
70301;SDS011;57706;56.326;43.882;2022-08-20T00:12:44;7.70;;;3.63;;
70301;SDS011;57706;56.326;43.882;2022-08-20T00:15:11;11.50;;;4.43;;
70301;SDS011;57706;56.326;43.882;2022-08-20T00:17:39;5.63;;;4.20;;
70301;SDS011;57706;56.326;43.882;2022-08-20T00:20:07;12.80;;;4.38;;
70301;SDS011;57706;56.326;43.882;2022-08-20T00:22:37;6.65;;;4.50;;
70301;SDS011;57706;56.326;43.882;2022-08-20T00:25:04;8.60;;;5.05;;
70301;SDS011;57706;56.326;43.882;2022-08-20T00:27:31;8.18;;;5.15;;
70301;SDS011;57706;56.326;43.882;2022-08-20T00:29:57;10.80;;;4.85;;
70301;SDS011;57706;56.326;43.882;2022-08-20T00:32:49;8.35;;;5.30;;
70301;SDS011;57706;56.326;43.882;2022-08-20T00:35:18;12.82;;;5.50;;
70301;SDS011;57706;56.326;43.882;2022-08-20T00:37:47;10.48;;;5.03;;
70301;SDS011;57706;56.326;43.882;2022-08-20T00:40:14;10.32;;;5.38;;
70301;SDS011;57706;56.326;43.882;2022-08-20T00:42:43;20.05;;;5.68;;
70301;SDS011;57706;56.326;43.882;2022-08-20T00:45:31;10.85;;;6.35;;
70301;SDS011;57706;56.326;43.882;2022-08-20T00:47:59;11.23;;;5.50;;
70301;SDS011;57706;56.326;43.882;2022-08-20T00:50:35;17.48;;;5.63;;
70301;SDS011;57706;56.326;43.882;2022-08-20T00:55:30;9.25;;;5.38;;
70301;SDS011;57706;56.326;43.882;2022-08-20T00:57:59;8.38;;;5.40;;
70301;SDS011;57706;56.326;43.882;2022-08-20T01:00:32;8.07;;;5.30;;
70301;SDS011;57706;56.326;43.882;2022-08-20T01:03:08;7.72;;;5.40;;
70301;SDS011;57706;56.326;43.882;2022-08-20T01:05:37;15.95;;;5.53;;
70301;SDS011;57706;56.326;43.882;2022-08-20T01:08:04;9.38;;;5.68;;
70301;SDS011;57706;56.326;43.882;2022-08-20T01:10:33;14.27;;;5.20;;
70301;SDS011;57706;56.326;43.882;2022-08-20T01:13:03;12.77;;;5.38;;
70301;SDS011;57706;56.326;43.882;2022-08-20T01:15:36;22.35;;;15.70;;
70301;SDS011;57706;56.326;43.882;2022-08-20T01:18:04;20.13;;;14.63;;
70301;SDS011;57706;56.326;43.882;2022-08-20T01:20:33;14.25;;;8.98;;
70301;SDS011;57706;56.326;43.882;2022-08-20T01:23:06;9.15;;;5.60;;
70301;SDS011;57706;56.326;43.882;2022-08-20T01:26:04;9.95;;;5.07;;
70301;SDS011;57706;56.326;43.882;2022-08-20T01:28:58;13.05;;;5.72;;
70301;SDS011;57706;56.326;43.882;2022-08-20T01:31:27;10.75;;;5.78;;
70301;SDS011;57706;56.326;43.882;2022-08-20T01:33:56;13.20;;;6.03;;
70301;SDS011;57706;56.326;43.882;2022-08-20T01:36:34;12.25;;;5.80;;
70301;SDS011;57706;56.326;43.882;2022-08-20T01:39:14;22.63;;;17.00;;
70301;SDS011;57706;56.326;43.882;2022-08-20T01:44:32;14.45;;;5.97;;
70301;SDS011;57706;56.326;43.882;2022-08-20T01:49:34;7.90;;;4.70;;
70301;SDS011;57706;56.326;43.882;2022-08-20T01:52:01;11.95;;;5.50;;
70301;SDS011;57706;56.326;43.882;2022-08-20T01:54:32;11.52;;;5.70;;
70301;SDS011;57706;56.326;43.882;2022-08-20T01:57:01;10.93;;;5.90;;
70301;SDS011;57706;56.326;43.882;2022-08-20T01:59:31;10.05;;;6.05;;
70301;SDS011;57706;56.326;43.882;2022-08-20T02:01:57;11.30;;;5.80;;
70301;SDS011;57706;56.326;43.882;2022-08-20T02:04:24;9.95;;;5.68;;
70301;SDS011;57706;56.326;43.882;2022-08-20T02:06:52;8.27;;;5.43;;
70301;SDS011;57706;56.326;43.882;2022-08-20T02:11:48;10.43;;;5.82;;
70301;SDS011;57706;56.326;43.882;2022-08-20T02:14:14;13.18;;;5.55;;
70301;SDS011;57706;56.326;43.882;2022-08-20T02:16:58;9.52;;;5.45;;
70301;SDS011;57706;56.326;43.882;2022-08-20T02:19:32;12.93;;;6.15;;
70301;SDS011;57706;56.326;43.882;2022-08-20T02:22:06;7.70;;;5.10;;
70301;SDS011;57706;56.326;43.882;2022-08-20T02:24:59;8.63;;;5.30;;
70301;SDS011;57706;56.326;43.882;2022-08-20T02:27:24;8.48;;;5.18;;
70301;SDS011;57706;56.326;43.882;2022-08-20T02:29:50;12.77;;;5.10;;
70301;SDS011;57706;56.326;43.882;2022-08-20T02:32:17;9.02;;;5.22;;
70301;SDS011;57706;56.326;43.882;2022-08-20T02:34:43;10.60;;;5.25;;
70301;SDS011;57706;56.326;43.882;2022-08-20T02:37:10;8.13;;;5.35;;
70301;SDS011;57706;56.326;43.882;2022-08-20T02:39:43;8.77;;;4.95;;
70301;SDS011;57706;56.326;43.882;2022-08-20T02:42:10;8.18;;;4.88;;
70301;SDS011;57706;56.326;43.882;2022-08-20T02:44:39;8.70;;;5.45;;
70301;SDS011;57706;56.326;43.882;2022-08-20T02:47:05;7.15;;;4.75;;
70301;SDS011;57706;56.326;43.882;2022-08-20T02:49:32;10.50;;;4.95;;
70301;SDS011;57706;56.326;43.882;2022-08-20T02:51:59;10.40;;;4.68;;
70301;SDS011;57706;56.326;43.882;2022-08-20T02:54:25;7.88;;;5.43;;
70301;SDS011;57706;56.326;43.882;2022-08-20T02:56:51;8.00;;;5.85;;
70301;SDS011;57706;56.326;43.882;2022-08-20T02:59:17;7.57;;;4.03;;
70301;SDS011;57706;56.326;43.882;2022-08-20T03:01:43;7.82;;;4.82;;
70301;SDS011;57706;56.326;43.882;2022-08-20T03:04:09;6.38;;;4.60;;
70301;SDS011;57706;56.326;43.882;2022-08-20T03:06:35;13.23;;;4.80;;
70301;SDS011;57706;56.326;43.882;2022-08-20T03:09:01;12.65;;;4.78;;
70301;SDS011;57706;56.326;43.882;2022-08-20T03:11:29;10.90;;;4.57;;
70301;SDS011;57706;56.326;43.882;2022-08-20T03:13:56;9.70;;;4.57;;
70301;SDS011;57706;56.326;43.882;2022-08-20T03:16:22;9.55;;;5.20;;
70301;SDS011;57706;56.326;43.882;2022-08-20T03:18:48;8.63;;;4.90;;
70301;SDS011;57706;56.326;43.882;2022-08-20T03:21:14;10.43;;;4.93;;
70301;SDS011;57706;56.326;43.882;2022-08-20T03:23:40;15.45;;;4.75;;
70301;SDS011;57706;56.326;43.882;2022-08-20T03:26:07;7.50;;;4.57;;
70301;SDS011;57706;56.326;43.882;2022-08-20T03:28:34;9.02;;;5.03;;
70301;SDS011;57706;56.326;43.882;2022-08-20T03:31:00;12.63;;;5.78;;
70301;SDS011;57706;56.326;43.882;2022-08-20T03:33:27;9.05;;;4.68;;
70301;SDS011;57706;56.326;43.882;2022-08-20T03:35:56;20.20;;;5.40;;
70301;SDS011;57706;56.326;43.882;2022-08-20T03:38:22;10.80;;;5.50;;
70301;SDS011;57706;56.326;43.882;2022-08-20T03:40:49;10.63;;;4.65;;
70301;SDS011;57706;56.326;43.882;2022-08-20T03:43:33;8.98;;;4.72;;
70301;SDS011;57706;56.326;43.882;2022-08-20T03:46:02;9.55;;;4.68;;
70301;SDS011;57706;56.326;43.882;2022-08-20T03:48:28;6.32;;;4.70;;
70301;SDS011;57706;56.326;43.882;2022-08-20T03:50:54;13.35;;;5.05;;
70301;SDS011;57706;56.326;43.882;2022-08-20T03:53:21;7.25;;;4.47;;
70301;SDS011;57706;56.326;43.882;2022-08-20T03:55:48;7.05;;;4.00;;
70301;SDS011;57706;56.326;43.882;2022-08-20T03:58:18;11.15;;;4.43;;
70301;SDS011;57706;56.326;43.882;2022-08-20T04:00:46;6.85;;;4.00;;
70301;SDS011;57706;56.326;43.882;2022-08-20T04:03:14;8.30;;;4.10;;
70301;SDS011;57706;56.326;43.882;2022-08-20T04:05:41;7.10;;;4.13;;
70301;SDS011;57706;56.326;43.882;2022-08-20T04:08:15;9.60;;;4.03;;
70301;SDS011;57706;56.326;43.882;2022-08-20T04:10:47;13.18;;;4.80;;
70301;SDS011;57706;56.326;43.882;2022-08-20T04:13:15;6.40;;;4.00;;
70301;SDS011;57706;56.326;43.882;2022-08-20T04:15:42;10.25;;;4.55;;
70301;SDS011;57706;56.326;43.882;2022-08-20T04:18:09;10.55;;;4.30;;
70301;SDS011;57706;56.326;43.882;2022-08-20T04:20:37;9.68;;;4.63;;
70301;SDS011;57706;56.326;43.882;2022-08-20T04:23:05;18.58;;;4.40;;
70301;SDS011;57706;56.326;43.882;2022-08-20T04:25:33;5.82;;;4.15;;
70301;SDS011;57706;56.326;43.882;2022-08-20T04:28:01;14.10;;;4.32;;
70301;SDS011;57706;56.326;43.882;2022-08-20T04:30:30;7.78;;;4.07;;
70301;SDS011;57706;56.326;43.882;2022-08-20T04:33:15;9.98;;;4.30;;
70301;SDS011;57706;56.326;43.882;2022-08-20T04:35:41;14.52;;;3.97;;
70301;SDS011;57706;56.326;43.882;2022-08-20T04:38:08;6.40;;;3.72;;
70301;SDS011;57706;56.326;43.882;2022-08-20T04:40:38;11.43;;;4.15;;
70301;SDS011;57706;56.326;43.882;2022-08-20T04:43:24;13.02;;;3.80;;
70301;SDS011;57706;56.326;43.882;2022-08-20T04:45:55;6.68;;;3.85;;
70301;SDS011;57706;56.326;43.882;2022-08-20T04:48:23;5.45;;;3.30;;
70301;SDS011;57706;56.326;43.882;2022-08-20T04:50:51;10.82;;;3.83;;
70301;SDS011;57706;56.326;43.882;2022-08-20T04:53:19;14.18;;;3.92;;
70301;SDS011;57706;56.326;43.882;2022-08-20T04:55:48;10.27;;;3.92;;
70301;SDS011;57706;56.326;43.882;2022-08-20T04:58:18;12.88;;;3.63;;
70301;SDS011;57706;56.326;43.882;2022-08-20T05:00:51;8.63;;;3.70;;
70301;SDS011;57706;56.326;43.882;2022-08-20T05:03:19;8.75;;;3.67;;
70301;SDS011;57706;56.326;43.882;2022-08-20T05:06:05;7.03;;;3.88;;
70301;SDS011;57706;56.326;43.882;2022-08-20T05:08:33;7.68;;;2.90;;
70301;SDS011;57706;56.326;43.882;2022-08-20T05:11:18;8.57;;;3.63;;
70301;SDS011;57706;56.326;43.882;2022-08-20T05:13:46;13.13;;;3.95;;
70301;SDS011;57706;56.326;43.882;2022-08-20T05:16:12;8.88;;;3.70;;
70301;SDS011;57706;56.326;43.882;2022-08-20T05:18:39;4.82;;;3.80;;
70301;SDS011;57706;56.326;43.882;2022-08-20T05:21:05;7.05;;;3.55;;
70301;SDS011;57706;56.326;43.882;2022-08-20T05:23:32;8.90;;;4.00;;
70301;SDS011;57706;56.326;43.882;2022-08-20T05:26:00;8.98;;;3.75;;
70301;SDS011;57706;56.326;43.882;2022-08-20T05:28:29;9.85;;;2.90;;
70301;SDS011;57706;56.326;43.882;2022-08-20T05:30:58;11.60;;;4.00;;
70301;SDS011;57706;56.326;43.882;2022-08-20T05:33:25;8.23;;;3.42;;
70301;SDS011;57706;56.326;43.882;2022-08-20T05:35:53;5.00;;;3.58;;
70301;SDS011;57706;56.326;43.882;2022-08-20T05:38:20;8.98;;;3.53;;
70301;SDS011;57706;56.326;43.882;2022-08-20T05:40:50;12.30;;;3.50;;
70301;SDS011;57706;56.326;43.882;2022-08-20T05:43:16;12.43;;;3.92;;
70301;SDS011;57706;56.326;43.882;2022-08-20T05:45:44;12.98;;;3.75;;
70301;SDS011;57706;56.326;43.882;2022-08-20T05:48:16;15.57;;;3.60;;
70301;SDS011;57706;56.326;43.882;2022-08-20T05:50:44;13.60;;;4.03;;
70301;SDS011;57706;56.326;43.882;2022-08-20T05:53:13;9.93;;;3.60;;
70301;SDS011;57706;56.326;43.882;2022-08-20T05:55:39;9.93;;;3.65;;
70301;SDS011;57706;56.326;43.882;2022-08-20T05:58:07;9.90;;;3.50;;
70301;SDS011;57706;56.326;43.882;2022-08-20T06:00:38;16.48;;;3.95;;
70301;SDS011;57706;56.326;43.882;2022-08-20T06:03:04;11.48;;;4.05;;
70301;SDS011;57706;56.326;43.882;2022-08-20T06:05:50;20.15;;;4.05;;
70301;SDS011;57706;56.326;43.882;2022-08-20T06:08:16;10.57;;;3.50;;
70301;SDS011;57706;56.326;43.882;2022-08-20T06:10:42;15.57;;;4.07;;
70301;SDS011;57706;56.326;43.882;2022-08-20T06:13:09;13.32;;;4.05;;
70301;SDS011;57706;56.326;43.882;2022-08-20T06:15:36;9.57;;;3.72;;
70301;SDS011;57706;56.326;43.882;2022-08-20T06:18:20;14.23;;;3.80;;
70301;SDS011;57706;56.326;43.882;2022-08-20T06:21:04;10.60;;;3.90;;
70301;SDS011;57706;56.326;43.882;2022-08-20T06:23:30;17.95;;;3.50;;
70301;SDS011;57706;56.326;43.882;2022-08-20T06:25:57;10.65;;;3.08;;
70301;SDS011;57706;56.326;43.882;2022-08-20T06:28:23;7.05;;;3.10;;
70301;SDS011;57706;56.326;43.882;2022-08-20T06:30:49;16.50;;;2.78;;
70301;SDS011;57706;56.326;43.882;2022-08-20T06:33:15;9.70;;;2.92;;
70301;SDS011;57706;56.326;43.882;2022-08-20T06:35:41;9.32;;;2.58;;
70301;SDS011;57706;56.326;43.882;2022-08-20T06:38:09;6.07;;;2.63;;
70301;SDS011;57706;56.326;43.882;2022-08-20T06:40:37;12.63;;;3.05;;
70301;SDS011;57706;56.326;43.882;2022-08-20T06:43:03;6.15;;;3.05;;
70301;SDS011;57706;56.326;43.882;2022-08-20T06:45:31;4.22;;;2.47;;
70301;SDS011;57706;56.326;43.882;2022-08-20T06:47:58;5.95;;;2.35;;
70301;SDS011;57706;56.326;43.882;2022-08-20T06:50:27;7.07;;;2.38;;
70301;SDS011;57706;56.326;43.882;2022-08-20T06:53:15;12.43;;;3.05;;
70301;SDS011;57706;56.326;43.882;2022-08-20T06:55:44;4.20;;;2.20;;
70301;SDS011;57706;56.326;43.882;2022-08-20T06:58:12;6.32;;;2.45;;
70301;SDS011;57706;56.326;43.882;2022-08-20T07:00:39;10.82;;;2.50;;
70301;SDS011;57706;56.326;43.882;2022-08-20T07:03:07;6.55;;;2.67;;
70301;SDS011;57706;56.326;43.882;2022-08-20T07:05:36;7.03;;;2.47;;
70301;SDS011;57706;56.326;43.882;2022-08-20T07:08:03;9.77;;;2.75;;
70301;SDS011;57706;56.326;43.882;2022-08-20T07:10:30;6.80;;;2.50;;
70301;SDS011;57706;56.326;43.882;2022-08-20T07:12:56;9.50;;;2.67;;
70301;SDS011;57706;56.326;43.882;2022-08-20T07:15:24;7.88;;;2.85;;
70301;SDS011;57706;56.326;43.882;2022-08-20T07:17:52;4.65;;;2.65;;
70301;SDS011;57706;56.326;43.882;2022-08-20T07:20:20;8.70;;;2.83;;
70301;SDS011;57706;56.326;43.882;2022-08-20T07:22:46;7.28;;;2.75;;
70301;SDS011;57706;56.326;43.882;2022-08-20T07:25:14;7.05;;;2.72;;
70301;SDS011;57706;56.326;43.882;2022-08-20T07:27:42;7.15;;;2.58;;
70301;SDS011;57706;56.326;43.882;2022-08-20T07:30:10;4.43;;;2.78;;
70301;SDS011;57706;56.326;43.882;2022-08-20T07:32:56;8.07;;;3.22;;
70301;SDS011;57706;56.326;43.882;2022-08-20T07:35:22;8.00;;;2.67;;
70301;SDS011;57706;56.326;43.882;2022-08-20T07:37:49;6.45;;;2.88;;
70301;SDS011;57706;56.326;43.882;2022-08-20T07:40:34;5.15;;;2.65;;
70301;SDS011;57706;56.326;43.882;2022-08-20T07:43:00;8.30;;;2.55;;
70301;SDS011;57706;56.326;43.882;2022-08-20T07:45:28;8.32;;;2.63;;
70301;SDS011;57706;56.326;43.882;2022-08-20T07:47:58;9.77;;;2.80;;
70301;SDS011;57706;56.326;43.882;2022-08-20T07:50:50;4.63;;;2.67;;
70301;SDS011;57706;56.326;43.882;2022-08-20T07:53:18;6.35;;;2.63;;
70301;SDS011;57706;56.326;43.882;2022-08-20T07:55:44;8.05;;;2.60;;
70301;SDS011;57706;56.326;43.882;2022-08-20T07:58:12;4.63;;;2.03;;
70301;SDS011;57706;56.326;43.882;2022-08-20T08:00:40;10.43;;;2.83;;
70301;SDS011;57706;56.326;43.882;2022-08-20T08:03:06;7.85;;;2.70;;
70301;SDS011;57706;56.326;43.882;2022-08-20T08:05:33;7.90;;;2.75;;
70301;SDS011;57706;56.326;43.882;2022-08-20T08:08:04;7.68;;;2.67;;
70301;SDS011;57706;56.326;43.882;2022-08-20T08:10:52;4.80;;;2.65;;
70301;SDS011;57706;56.326;43.882;2022-08-20T08:13:27;10.13;;;2.60;;
70301;SDS011;57706;56.326;43.882;2022-08-20T08:15:57;6.90;;;2.97;;
70301;SDS011;57706;56.326;43.882;2022-08-20T08:18:27;6.55;;;2.63;;
70301;SDS011;57706;56.326;43.882;2022-08-20T08:20:58;7.95;;;2.75;;
70301;SDS011;57706;56.326;43.882;2022-08-20T08:23:24;7.72;;;2.65;;
70301;SDS011;57706;56.326;43.882;2022-08-20T08:25:50;9.55;;;2.15;;
70301;SDS011;57706;56.326;43.882;2022-08-20T08:28:17;3.35;;;2.85;;
70301;SDS011;57706;56.326;43.882;2022-08-20T08:30:45;5.68;;;3.17;;
70301;SDS011;57706;56.326;43.882;2022-08-20T08:33:22;9.27;;;2.83;;
70301;SDS011;57706;56.326;43.882;2022-08-20T08:35:59;4.07;;;2.47;;
70301;SDS011;57706;56.326;43.882;2022-08-20T08:38:28;14.02;;;2.97;;
70301;SDS011;57706;56.326;43.882;2022-08-20T08:40:56;5.65;;;2.67;;
70301;SDS011;57706;56.326;43.882;2022-08-20T08:43:27;7.97;;;2.80;;
70301;SDS011;57706;56.326;43.882;2022-08-20T08:45:57;8.73;;;2.65;;
70301;SDS011;57706;56.326;43.882;2022-08-20T08:48:36;5.57;;;2.65;;
70301;SDS011;57706;56.326;43.882;2022-08-20T08:51:08;7.68;;;2.85;;
70301;SDS011;57706;56.326;43.882;2022-08-20T08:53:47;8.65;;;2.85;;
70301;SDS011;57706;56.326;43.882;2022-08-20T08:56:24;3.35;;;1.98;;
70301;SDS011;57706;56.326;43.882;2022-08-20T08:58:52;3.22;;;2.50;;
70301;SDS011;57706;56.326;43.882;2022-08-20T09:01:22;4.80;;;2.45;;
70301;SDS011;57706;56.326;43.882;2022-08-20T09:03:50;8.23;;;2.65;;
70301;SDS011;57706;56.326;43.882;2022-08-20T09:06:17;6.38;;;3.03;;
70301;SDS011;57706;56.326;43.882;2022-08-20T09:11:27;5.90;;;2.60;;
70301;SDS011;57706;56.326;43.882;2022-08-20T09:13:54;5.07;;;2.42;;
70301;SDS011;57706;56.326;43.882;2022-08-20T09:16:20;3.78;;;2.45;;
70301;SDS011;57706;56.326;43.882;2022-08-20T09:18:48;3.70;;;2.60;;
70301;SDS011;57706;56.326;43.882;2022-08-20T09:21:14;4.53;;;2.80;;
70301;SDS011;57706;56.326;43.882;2022-08-20T09:23:41;5.03;;;3.30;;
70301;SDS011;57706;56.326;43.882;2022-08-20T09:26:07;10.27;;;2.65;;
70301;SDS011;57706;56.326;43.882;2022-08-20T09:28:33;8.82;;;2.85;;
70301;SDS011;57706;56.326;43.882;2022-08-20T09:31:00;5.18;;;2.70;;
70301;SDS011;57706;56.326;43.882;2022-08-20T09:33:26;5.68;;;3.10;;
70301;SDS011;57706;56.326;43.882;2022-08-20T09:35:52;6.90;;;2.88;;
70301;SDS011;57706;56.326;43.882;2022-08-20T09:38:18;6.38;;;3.00;;
70301;SDS011;57706;56.326;43.882;2022-08-20T09:40:45;11.18;;;2.88;;
70301;SDS011;57706;56.326;43.882;2022-08-20T09:43:10;7.25;;;3.20;;
70301;SDS011;57706;56.326;43.882;2022-08-20T09:45:37;4.95;;;2.67;;
70301;SDS011;57706;56.326;43.882;2022-08-20T09:48:03;6.35;;;2.85;;
70301;SDS011;57706;56.326;43.882;2022-08-20T09:50:30;5.47;;;2.80;;
70301;SDS011;57706;56.326;43.882;2022-08-20T09:52:58;9.20;;;3.15;;
70301;SDS011;57706;56.326;43.882;2022-08-20T09:58:07;4.75;;;2.80;;
70301;SDS011;57706;56.326;43.882;2022-08-20T10:00:45;5.75;;;2.75;;
70301;SDS011;57706;56.326;43.882;2022-08-20T10:03:12;4.22;;;2.75;;
70301;SDS011;57706;56.326;43.882;2022-08-20T10:05:37;5.72;;;3.00;;
70301;SDS011;57706;56.326;43.882;2022-08-20T10:08:04;7.22;;;2.58;;
70301;SDS011;57706;56.326;43.882;2022-08-20T10:10:32;5.35;;;2.92;;
70301;SDS011;57706;56.326;43.882;2022-08-20T10:12:58;6.03;;;3.10;;
70301;SDS011;57706;56.326;43.882;2022-08-20T10:15:24;4.78;;;2.63;;
70301;SDS011;57706;56.326;43.882;2022-08-20T10:17:49;5.05;;;2.72;;
70301;SDS011;57706;56.326;43.882;2022-08-20T10:20:17;5.60;;;3.05;;
70301;SDS011;57706;56.326;43.882;2022-08-20T10:22:44;3.75;;;2.60;;
70301;SDS011;57706;56.326;43.882;2022-08-20T10:25:10;9.18;;;3.35;;
70301;SDS011;57706;56.326;43.882;2022-08-20T10:27:37;11.77;;;3.05;;
70301;SDS011;57706;56.326;43.882;2022-08-20T10:30:03;10.95;;;3.25;;
70301;SDS011;57706;56.326;43.882;2022-08-20T10:32:30;4.82;;;2.50;;
70301;SDS011;57706;56.326;43.882;2022-08-20T10:34:56;5.57;;;2.78;;
70301;SDS011;57706;56.326;43.882;2022-08-20T10:37:23;7.80;;;3.38;;
70301;SDS011;57706;56.326;43.882;2022-08-20T10:39:50;7.53;;;2.83;;
70301;SDS011;57706;56.326;43.882;2022-08-20T10:42:16;6.15;;;2.85;;
70301;SDS011;57706;56.326;43.882;2022-08-20T10:44:43;4.50;;;3.00;;
70301;SDS011;57706;56.326;43.882;2022-08-20T10:47:16;5.63;;;3.30;;
70301;SDS011;57706;56.326;43.882;2022-08-20T10:49:42;6.43;;;2.80;;
70301;SDS011;57706;56.326;43.882;2022-08-20T10:52:08;5.13;;;2.65;;
70301;SDS011;57706;56.326;43.882;2022-08-20T10:54:34;4.13;;;2.67;;
70301;SDS011;57706;56.326;43.882;2022-08-20T10:57:01;4.30;;;2.80;;
70301;SDS011;57706;56.326;43.882;2022-08-20T10:59:28;10.18;;;2.80;;
70301;SDS011;57706;56.326;43.882;2022-08-20T11:01:54;8.38;;;3.00;;
70301;SDS011;57706;56.326;43.882;2022-08-20T11:04:20;11.18;;;2.83;;
70301;SDS011;57706;56.326;43.882;2022-08-20T11:06:46;8.43;;;3.00;;
70301;SDS011;57706;56.326;43.882;2022-08-20T11:09:12;4.93;;;2.95;;
70301;SDS011;57706;56.326;43.882;2022-08-20T11:11:38;8.85;;;2.97;;
70301;SDS011;57706;56.326;43.882;2022-08-20T11:14:22;5.25;;;2.70;;
70301;SDS011;57706;56.326;43.882;2022-08-20T11:16:48;8.60;;;2.97;;
70301;SDS011;57706;56.326;43.882;2022-08-20T11:19:14;11.23;;;2.67;;
70301;SDS011;57706;56.326;43.882;2022-08-20T11:21:40;6.00;;;3.38;;
70301;SDS011;57706;56.326;43.882;2022-08-20T11:24:06;5.05;;;3.03;;
70301;SDS011;57706;56.326;43.882;2022-08-20T11:26:32;3.53;;;2.70;;
70301;SDS011;57706;56.326;43.882;2022-08-20T11:28:57;5.50;;;2.83;;
70301;SDS011;57706;56.326;43.882;2022-08-20T11:31:23;6.97;;;3.10;;
70301;SDS011;57706;56.326;43.882;2022-08-20T11:33:49;4.18;;;2.72;;
70301;SDS011;57706;56.326;43.882;2022-08-20T11:36:15;5.55;;;2.30;;
70301;SDS011;57706;56.326;43.882;2022-08-20T11:38:41;6.97;;;2.90;;
70301;SDS011;57706;56.326;43.882;2022-08-20T11:41:07;12.88;;;3.03;;
70301;SDS011;57706;56.326;43.882;2022-08-20T11:43:33;6.38;;;2.88;;
70301;SDS011;57706;56.326;43.882;2022-08-20T11:45:59;4.88;;;2.78;;
70301;SDS011;57706;56.326;43.882;2022-08-20T11:48:24;5.10;;;2.10;;
70301;SDS011;57706;56.326;43.882;2022-08-20T11:50:50;3.33;;;2.55;;
70301;SDS011;57706;56.326;43.882;2022-08-20T11:53:16;5.13;;;2.70;;
70301;SDS011;57706;56.326;43.882;2022-08-20T11:56:01;5.68;;;2.70;;
70301;SDS011;57706;56.326;43.882;2022-08-20T11:58:27;7.90;;;2.97;;
70301;SDS011;57706;56.326;43.882;2022-08-20T12:00:52;10.63;;;2.80;;
70301;SDS011;57706;56.326;43.882;2022-08-20T12:03:37;11.50;;;2.70;;
70301;SDS011;57706;56.326;43.882;2022-08-20T12:06:03;5.82;;;2.60;;
70301;SDS011;57706;56.326;43.882;2022-08-20T12:08:29;8.80;;;2.55;;
70301;SDS011;57706;56.326;43.882;2022-08-20T12:10:56;5.40;;;2.47;;
70301;SDS011;57706;56.326;43.882;2022-08-20T12:13:24;9.73;;;2.60;;
70301;SDS011;57706;56.326;43.882;2022-08-20T12:15:54;7.22;;;2.80;;
70301;SDS011;57706;56.326;43.882;2022-08-20T12:18:20;5.93;;;2.67;;
70301;SDS011;57706;56.326;43.882;2022-08-20T12:20:46;4.53;;;2.63;;
70301;SDS011;57706;56.326;43.882;2022-08-20T12:23:13;7.22;;;2.65;;
70301;SDS011;57706;56.326;43.882;2022-08-20T12:25:57;5.82;;;2.92;;
70301;SDS011;57706;56.326;43.882;2022-08-20T12:28:28;5.65;;;2.03;;
70301;SDS011;57706;56.326;43.882;2022-08-20T12:30:55;5.43;;;2.83;;
70301;SDS011;57706;56.326;43.882;2022-08-20T12:33:21;6.78;;;2.92;;
70301;SDS011;57706;56.326;43.882;2022-08-20T12:35:47;4.80;;;2.60;;
70301;SDS011;57706;56.326;43.882;2022-08-20T12:38:13;3.63;;;1.90;;
70301;SDS011;57706;56.326;43.882;2022-08-20T12:40:39;3.92;;;2.33;;
70301;SDS011;57706;56.326;43.882;2022-08-20T12:43:05;5.45;;;2.65;;
70301;SDS011;57706;56.326;43.882;2022-08-20T12:45:33;8.02;;;3.00;;
70301;SDS011;57706;56.326;43.882;2022-08-20T12:48:04;7.70;;;3.15;;
70301;SDS011;57706;56.326;43.882;2022-08-20T12:50:33;5.93;;;2.67;;
70301;SDS011;57706;56.326;43.882;2022-08-20T12:53:00;7.63;;;2.63;;
70301;SDS011;57706;56.326;43.882;2022-08-20T12:55:26;3.60;;;2.20;;
70301;SDS011;57706;56.326;43.882;2022-08-20T12:57:54;10.45;;;2.60;;
70301;SDS011;57706;56.326;43.882;2022-08-20T13:00:28;4.10;;;1.90;;
70301;SDS011;57706;56.326;43.882;2022-08-20T13:02:57;5.32;;;2.90;;
70301;SDS011;57706;56.326;43.882;2022-08-20T13:05:43;7.95;;;2.78;;
70301;SDS011;57706;56.326;43.882;2022-08-20T13:08:10;9.90;;;2.85;;
70301;SDS011;57706;56.326;43.882;2022-08-20T13:10:38;2.95;;;2.70;;
70301;SDS011;57706;56.326;43.882;2022-08-20T13:13:09;8.23;;;3.20;;
70301;SDS011;57706;56.326;43.882;2022-08-20T13:15:39;6.65;;;2.20;;
70301;SDS011;57706;56.326;43.882;2022-08-20T13:18:05;4.20;;;2.75;;
70301;SDS011;57706;56.326;43.882;2022-08-20T13:20:32;5.00;;;2.30;;
70301;SDS011;57706;56.326;43.882;2022-08-20T13:22:58;8.95;;;2.65;;
70301;SDS011;57706;56.326;43.882;2022-08-20T13:25:24;7.30;;;2.85;;
70301;SDS011;57706;56.326;43.882;2022-08-20T13:27:54;7.82;;;2.58;;
70301;SDS011;57706;56.326;43.882;2022-08-20T13:30:22;9.35;;;2.60;;
70301;SDS011;57706;56.326;43.882;2022-08-20T13:33:07;8.43;;;2.83;;
70301;SDS011;57706;56.326;43.882;2022-08-20T13:35:33;4.50;;;2.85;;
70301;SDS011;57706;56.326;43.882;2022-08-20T13:37:59;5.03;;;2.80;;
70301;SDS011;57706;56.326;43.882;2022-08-20T13:40:25;12.75;;;3.60;;
70301;SDS011;57706;56.326;43.882;2022-08-20T13:42:52;7.75;;;2.95;;
70301;SDS011;57706;56.326;43.882;2022-08-20T13:45:17;4.75;;;2.55;;
70301;SDS011;57706;56.326;43.882;2022-08-20T13:47:43;9.45;;;2.92;;
70301;SDS011;57706;56.326;43.882;2022-08-20T13:50:14;5.38;;;2.60;;
70301;SDS011;57706;56.326;43.882;2022-08-20T13:52:42;6.05;;;3.08;;
70301;SDS011;57706;56.326;43.882;2022-08-20T13:55:09;3.50;;;2.80;;
70301;SDS011;57706;56.326;43.882;2022-08-20T13:57:37;4.53;;;2.70;;
70301;SDS011;57706;56.326;43.882;2022-08-20T14:00:04;4.53;;;3.17;;
70301;SDS011;57706;56.326;43.882;2022-08-20T14:02:35;9.85;;;2.78;;
70301;SDS011;57706;56.326;43.882;2022-08-20T14:05:01;5.28;;;2.60;;
70301;SDS011;57706;56.326;43.882;2022-08-20T14:07:29;9.85;;;3.00;;
70301;SDS011;57706;56.326;43.882;2022-08-20T14:10:06;4.85;;;2.90;;
70301;SDS011;57706;56.326;43.882;2022-08-20T14:12:35;4.10;;;2.90;;
70301;SDS011;57706;56.326;43.882;2022-08-20T14:15:01;6.22;;;2.95;;
70301;SDS011;57706;56.326;43.882;2022-08-20T14:17:30;7.85;;;2.80;;
70301;SDS011;57706;56.326;43.882;2022-08-20T14:20:00;8.60;;;3.03;;
70301;SDS011;57706;56.326;43.882;2022-08-20T14:22:29;7.05;;;3.00;;
70301;SDS011;57706;56.326;43.882;2022-08-20T14:24:55;11.15;;;2.90;;
70301;SDS011;57706;56.326;43.882;2022-08-20T14:27:22;5.75;;;2.80;;
70301;SDS011;57706;56.326;43.882;2022-08-20T14:29:49;8.15;;;2.95;;
70301;SDS011;57706;56.326;43.882;2022-08-20T14:32:16;4.30;;;3.00;;
70301;SDS011;57706;56.326;43.882;2022-08-20T14:34:42;5.18;;;3.20;;
70301;SDS011;57706;56.326;43.882;2022-08-20T14:37:13;8.68;;;3.30;;
70301;SDS011;57706;56.326;43.882;2022-08-20T14:40:09;8.93;;;2.78;;
70301;SDS011;57706;56.326;43.882;2022-08-20T14:42:38;6.78;;;3.05;;
70301;SDS011;57706;56.326;43.882;2022-08-20T14:45:05;20.27;;;2.90;;
70301;SDS011;57706;56.326;43.882;2022-08-20T14:47:37;9.57;;;3.20;;
70301;SDS011;57706;56.326;43.882;2022-08-20T14:50:07;9.77;;;3.03;;
70301;SDS011;57706;56.326;43.882;2022-08-20T14:52:39;9.88;;;3.00;;
70301;SDS011;57706;56.326;43.882;2022-08-20T14:55:07;6.40;;;3.97;;
70301;SDS011;57706;56.326;43.882;2022-08-20T14:57:40;7.25;;;3.17;;